SAS55L EKCH-EDDB
Flight info
| Callsign | SAS55L |
|---|---|
| Flight time | 0h 52m |
| Altitude | 35000 |
| Route | SALLO M44 KOGIM M725 RODEP T280 KETAP KETAP1R |
| Aircraft | A320/M-SDE3FGHIRWY/LB1 |
Departure
| Time | 2026-05-07 16:30 |
|---|---|
| Airport | Copenhagen Kastrup Airport (EKCH) |
Arrival
| Time | 2026-05-07 17:23 |
|---|---|
| Airport | Berlin Brandenburg Airport (EDDB) |
| Time | Latitude | Longitude | Altitude | Speed | Heading |
|---|---|---|---|---|---|
| 2026-05-07 16:00 | 55.62573 | 12.65019 | 24 ft | 0 kts | 268° |
| 2026-05-07 16:15 | 55.62573 | 12.65028 | 24 ft | 4 kts | 268° |
| 2026-05-07 16:15 | 55.62573 | 12.65075 | 26 ft | 4 kts | 268° |
| 2026-05-07 16:16 | 55.62574 | 12.65113 | 28 ft | 4 kts | 270° |
| 2026-05-07 16:16 | 55.62572 | 12.65159 | 25 ft | 4 kts | 295° |
| 2026-05-07 16:16 | 55.62557 | 12.65182 | 28 ft | 2 kts | 359° |
| 2026-05-07 16:16 | 55.62577 | 12.65182 | 27 ft | 4 kts | 359° |
| 2026-05-07 16:17 | 55.62604 | 12.65181 | 24 ft | 4 kts | 359° |
| 2026-05-07 16:17 | 55.62613 | 12.65180 | 24 ft | 0 kts | 359° |
| 2026-05-07 16:20 | 55.62617 | 12.65182 | 24 ft | 2 kts | 10° |
| 2026-05-07 16:20 | 55.62644 | 12.65214 | 25 ft | 6 kts | 47° |
| 2026-05-07 16:20 | 55.62651 | 12.65282 | 24 ft | 5 kts | 105° |
| 2026-05-07 16:20 | 55.62628 | 12.65313 | 24 ft | 4 kts | 162° |
| 2026-05-07 16:21 | 55.62610 | 12.65318 | 24 ft | 2 kts | 177° |
| 2026-05-07 16:21 | 55.62608 | 12.65318 | 24 ft | 2 kts | 177° |
| 2026-05-07 16:22 | 55.62574 | 12.65321 | 24 ft | 2 kts | 177° |
| 2026-05-07 16:22 | 55.62543 | 12.65321 | 24 ft | 6 kts | 180° |
| 2026-05-07 16:22 | 55.62506 | 12.65321 | 24 ft | 5 kts | 180° |
| 2026-05-07 16:22 | 55.62459 | 12.65308 | 24 ft | 9 kts | 211° |
| 2026-05-07 16:23 | 55.62414 | 12.65208 | 24 ft | 13 kts | 207° |
| 2026-05-07 16:23 | 55.62309 | 12.65199 | 24 ft | 16 kts | 184° |
| 2026-05-07 16:23 | 55.62208 | 12.65171 | 24 ft | 14 kts | 204° |
| 2026-05-07 16:23 | 55.62130 | 12.65085 | 24 ft | 12 kts | 214° |
| 2026-05-07 16:24 | 55.62061 | 12.65005 | 25 ft | 11 kts | 213° |
| 2026-05-07 16:24 | 55.62002 | 12.64937 | 24 ft | 16 kts | 213° |
| 2026-05-07 16:24 | 55.61907 | 12.64829 | 24 ft | 16 kts | 213° |
| 2026-05-07 16:24 | 55.61812 | 12.64719 | 24 ft | 18 kts | 213° |
| 2026-05-07 16:25 | 55.61711 | 12.64603 | 24 ft | 16 kts | 213° |
| 2026-05-07 16:25 | 55.61620 | 12.64497 | 24 ft | 15 kts | 213° |
| 2026-05-07 16:25 | 55.61529 | 12.64390 | 24 ft | 15 kts | 213° |
| 2026-05-07 16:25 | 55.61444 | 12.64297 | 25 ft | 14 kts | 212° |
| 2026-05-07 16:26 | 55.61368 | 12.64209 | 24 ft | 12 kts | 213° |
| 2026-05-07 16:26 | 55.61299 | 12.64129 | 25 ft | 11 kts | 214° |
| 2026-05-07 16:26 | 55.61223 | 12.64042 | 24 ft | 15 kts | 213° |
| 2026-05-07 16:26 | 55.61113 | 12.63914 | 25 ft | 21 kts | 213° |
| 2026-05-07 16:27 | 55.60995 | 12.63778 | 25 ft | 19 kts | 213° |
| 2026-05-07 16:27 | 55.60887 | 12.63654 | 24 ft | 18 kts | 213° |
| 2026-05-07 16:27 | 55.60786 | 12.63610 | 26 ft | 14 kts | 149° |
| 2026-05-07 16:27 | 55.60724 | 12.63727 | 24 ft | 12 kts | 129° |
| 2026-05-07 16:28 | 55.60678 | 12.63832 | 26 ft | 9 kts | 119° |
| 2026-05-07 16:28 | 55.60693 | 12.63894 | 29 ft | 0 kts | 44° |
| 2026-05-07 16:29 | 55.60700 | 12.63906 | 27 ft | 14 kts | 44° |
| 2026-05-07 16:29 | 55.60979 | 12.64342 | 24 ft | 89 kts | 40° |
| 2026-05-07 16:30 | 55.61595 | 12.65290 | 22 ft | 143 kts | 42° |
| 2026-05-07 16:30 | 55.62437 | 12.66578 | 312 ft | 164 kts | 39° |
| 2026-05-07 16:30 | 55.63297 | 12.67909 | 1047 ft | 165 kts | 40° |
| 2026-05-07 16:30 | 55.64184 | 12.69279 | 1589 ft | 178 kts | 40° |
| 2026-05-07 16:31 | 55.65145 | 12.70789 | 1970 ft | 197 kts | 39° |
| 2026-05-07 16:31 | 55.66257 | 12.72474 | 2337 ft | 223 kts | 38° |
| 2026-05-07 16:31 | 55.67513 | 12.74334 | 2841 ft | 245 kts | 38° |
| 2026-05-07 16:31 | 55.68809 | 12.76393 | 3650 ft | 255 kts | 48° |
| 2026-05-07 16:32 | 55.69680 | 12.79165 | 4545 ft | 263 kts | 71° |
| 2026-05-07 16:32 | 55.69851 | 12.82420 | 5437 ft | 271 kts | 97° |
| 2026-05-07 16:32 | 55.69232 | 12.85582 | 6366 ft | 275 kts | 122° |
| 2026-05-07 16:32 | 55.67910 | 12.88029 | 7269 ft | 278 kts | 146° |
| 2026-05-07 16:33 | 55.66138 | 12.89453 | 8111 ft | 283 kts | 159° |
| 2026-05-07 16:33 | 55.64273 | 12.90630 | 8978 ft | 287 kts | 162° |
| 2026-05-07 16:33 | 55.62289 | 12.91165 | 9833 ft | 292 kts | 179° |
| 2026-05-07 16:33 | 55.60252 | 12.90697 | 10440 ft | 305 kts | 195° |
| 2026-05-07 16:34 | 55.58282 | 12.89105 | 10706 ft | 327 kts | 215° |
| 2026-05-07 16:34 | 55.56589 | 12.86329 | 11271 ft | 336 kts | 227° |
| 2026-05-07 16:34 | 55.54973 | 12.83308 | 12045 ft | 339 kts | 225° |
| 2026-05-07 16:34 | 55.53121 | 12.80689 | 12796 ft | 343 kts | 211° |
| 2026-05-07 16:35 | 55.50943 | 12.78946 | 13563 ft | 346 kts | 197° |
| 2026-05-07 16:35 | 55.48570 | 12.78163 | 14266 ft | 349 kts | 184° |
| 2026-05-07 16:35 | 55.46137 | 12.78351 | 14909 ft | 353 kts | 173° |
| 2026-05-07 16:35 | 55.43690 | 12.78882 | 15564 ft | 356 kts | 174° |
| 2026-05-07 16:36 | 55.41222 | 12.79416 | 16209 ft | 359 kts | 174° |
| 2026-05-07 16:36 | 55.38736 | 12.79955 | 16845 ft | 362 kts | 174° |
| 2026-05-07 16:36 | 55.36221 | 12.80525 | 17470 ft | 366 kts | 171° |
| 2026-05-07 16:36 | 55.33756 | 12.81700 | 18079 ft | 371 kts | 160° |
| 2026-05-07 16:37 | 55.31436 | 12.83731 | 18651 ft | 375 kts | 148° |
| 2026-05-07 16:37 | 55.29337 | 12.86497 | 19182 ft | 379 kts | 142° |
| 2026-05-07 16:37 | 55.27271 | 12.89406 | 19724 ft | 382 kts | 142° |
| 2026-05-07 16:37 | 55.25188 | 12.92324 | 20250 ft | 385 kts | 142° |
| 2026-05-07 16:38 | 55.23089 | 12.95258 | 20784 ft | 387 kts | 142° |
| 2026-05-07 16:38 | 55.20971 | 12.98204 | 21300 ft | 390 kts | 142° |
| 2026-05-07 16:38 | 55.18837 | 13.01166 | 21806 ft | 393 kts | 142° |
| 2026-05-07 16:38 | 55.16688 | 13.04150 | 22308 ft | 396 kts | 142° |
| 2026-05-07 16:39 | 55.14527 | 13.07153 | 22799 ft | 399 kts | 142° |
| 2026-05-07 16:39 | 55.12371 | 13.10146 | 23286 ft | 401 kts | 142° |
| 2026-05-07 16:39 | 55.10169 | 13.13190 | 23753 ft | 404 kts | 142° |
| 2026-05-07 16:39 | 55.07957 | 13.16240 | 24152 ft | 407 kts | 142° |
| 2026-05-07 16:40 | 55.05731 | 13.19306 | 24558 ft | 409 kts | 143° |
| 2026-05-07 16:40 | 55.03494 | 13.22385 | 24962 ft | 410 kts | 143° |
| 2026-05-07 16:40 | 55.01249 | 13.25472 | 25343 ft | 413 kts | 143° |
| 2026-05-07 16:40 | 54.98986 | 13.28574 | 25739 ft | 415 kts | 143° |
| 2026-05-07 16:41 | 54.96710 | 13.31687 | 26121 ft | 417 kts | 143° |
| 2026-05-07 16:41 | 54.94406 | 13.34774 | 26501 ft | 418 kts | 147° |
| 2026-05-07 16:41 | 54.91892 | 13.37316 | 26872 ft | 418 kts | 156° |
| 2026-05-07 16:41 | 54.89166 | 13.39091 | 27240 ft | 418 kts | 166° |
| 2026-05-07 16:42 | 54.86308 | 13.40071 | 27596 ft | 419 kts | 173° |
| 2026-05-07 16:42 | 54.83406 | 13.40827 | 27962 ft | 421 kts | 173° |
| 2026-05-07 16:42 | 54.80495 | 13.41598 | 28323 ft | 424 kts | 172° |
| 2026-05-07 16:42 | 54.77620 | 13.42373 | 28685 ft | 426 kts | 172° |
| 2026-05-07 16:43 | 54.74681 | 13.43168 | 29061 ft | 427 kts | 172° |
| 2026-05-07 16:43 | 54.71744 | 13.43961 | 29427 ft | 428 kts | 172° |
| 2026-05-07 16:43 | 54.68792 | 13.44757 | 29773 ft | 430 kts | 172° |
| 2026-05-07 16:43 | 54.65827 | 13.45554 | 30103 ft | 432 kts | 172° |
| 2026-05-07 16:44 | 54.62845 | 13.46353 | 30385 ft | 434 kts | 172° |
| 2026-05-07 16:44 | 54.59853 | 13.47156 | 30644 ft | 436 kts | 172° |
| 2026-05-07 16:44 | 54.56846 | 13.47963 | 30887 ft | 438 kts | 172° |
| 2026-05-07 16:44 | 54.53825 | 13.48763 | 31130 ft | 440 kts | 172° |
| 2026-05-07 16:45 | 54.50778 | 13.49567 | 31367 ft | 442 kts | 172° |
| 2026-05-07 16:45 | 54.47741 | 13.50356 | 31744 ft | 440 kts | 173° |
| 2026-05-07 16:45 | 54.44725 | 13.51119 | 32200 ft | 437 kts | 173° |
| 2026-05-07 16:45 | 54.41719 | 13.51869 | 32581 ft | 436 kts | 172° |
| 2026-05-07 16:46 | 54.38722 | 13.52616 | 32908 ft | 435 kts | 172° |
| 2026-05-07 16:46 | 54.35719 | 13.53369 | 33231 ft | 436 kts | 172° |
| 2026-05-07 16:46 | 54.32720 | 13.54124 | 33561 ft | 436 kts | 172° |
| 2026-05-07 16:46 | 54.29763 | 13.54871 | 33877 ft | 436 kts | 172° |
| 2026-05-07 16:47 | 54.26767 | 13.55646 | 34190 ft | 435 kts | 172° |
| 2026-05-07 16:47 | 54.23799 | 13.56431 | 34371 ft | 426 kts | 172° |
| 2026-05-07 16:47 | 54.20854 | 13.57213 | 33756 ft | 424 kts | 172° |
| 2026-05-07 16:47 | 54.17955 | 13.57977 | 32844 ft | 428 kts | 172° |
| 2026-05-07 16:48 | 54.14987 | 13.58752 | 32212 ft | 425 kts | 172° |
| 2026-05-07 16:48 | 54.12075 | 13.59505 | 31643 ft | 421 kts | 172° |
| 2026-05-07 16:48 | 54.09238 | 13.60238 | 31142 ft | 416 kts | 172° |
| 2026-05-07 16:48 | 54.06409 | 13.60970 | 30379 ft | 407 kts | 172° |
| 2026-05-07 16:49 | 54.03645 | 13.61687 | 29836 ft | 398 kts | 172° |
| 2026-05-07 16:49 | 54.00926 | 13.62388 | 29373 ft | 392 kts | 172° |
| 2026-05-07 16:49 | 53.98242 | 13.63077 | 28922 ft | 386 kts | 172° |
| 2026-05-07 16:49 | 53.95608 | 13.63754 | 28487 ft | 381 kts | 172° |
| 2026-05-07 16:50 | 53.93004 | 13.64423 | 28056 ft | 375 kts | 172° |
| 2026-05-07 16:50 | 53.90439 | 13.65161 | 27630 ft | 371 kts | 170° |
| 2026-05-07 16:50 | 53.87928 | 13.66025 | 27211 ft | 366 kts | 168° |
| 2026-05-07 16:50 | 53.85455 | 13.66951 | 26798 ft | 362 kts | 168° |
| 2026-05-07 16:51 | 53.83011 | 13.67891 | 26381 ft | 358 kts | 168° |
| 2026-05-07 16:51 | 53.80589 | 13.68813 | 25967 ft | 355 kts | 168° |
| 2026-05-07 16:51 | 53.78183 | 13.69713 | 25531 ft | 353 kts | 167° |
| 2026-05-07 16:51 | 53.75790 | 13.70587 | 25112 ft | 350 kts | 168° |
| 2026-05-07 16:52 | 53.73409 | 13.71441 | 24681 ft | 349 kts | 168° |
| 2026-05-07 16:52 | 53.71033 | 13.72286 | 24232 ft | 348 kts | 168° |
| 2026-05-07 16:52 | 53.68643 | 13.72945 | 23784 ft | 348 kts | 176° |
| 2026-05-07 16:52 | 53.66228 | 13.72911 | 23293 ft | 347 kts | 184° |
| 2026-05-07 16:53 | 53.63823 | 13.72654 | 22839 ft | 345 kts | 184° |
| 2026-05-07 16:53 | 53.61438 | 13.72404 | 22404 ft | 343 kts | 184° |
| 2026-05-07 16:53 | 53.59063 | 13.72162 | 21968 ft | 341 kts | 184° |
| 2026-05-07 16:53 | 53.56728 | 13.71924 | 21548 ft | 339 kts | 184° |
| 2026-05-07 16:54 | 53.54371 | 13.71682 | 21119 ft | 338 kts | 184° |
| 2026-05-07 16:54 | 53.52024 | 13.71441 | 20697 ft | 337 kts | 184° |
| 2026-05-07 16:54 | 53.49688 | 13.71201 | 20279 ft | 336 kts | 184° |
| 2026-05-07 16:54 | 53.47346 | 13.70959 | 19852 ft | 336 kts | 184° |
| 2026-05-07 16:55 | 53.45016 | 13.70720 | 19428 ft | 335 kts | 184° |
| 2026-05-07 16:55 | 53.42684 | 13.70484 | 19015 ft | 335 kts | 184° |
| 2026-05-07 16:55 | 53.40357 | 13.70248 | 18607 ft | 335 kts | 184° |
| 2026-05-07 16:55 | 53.38063 | 13.70017 | 18173 ft | 335 kts | 184° |
| 2026-05-07 16:56 | 53.35741 | 13.69787 | 17740 ft | 334 kts | 184° |
| 2026-05-07 16:56 | 53.33426 | 13.69558 | 17340 ft | 332 kts | 184° |
| 2026-05-07 16:56 | 53.28826 | 13.69101 | 16539 ft | 330 kts | 184° |
| 2026-05-07 16:57 | 53.26542 | 13.68871 | 16143 ft | 329 kts | 184° |
| 2026-05-07 16:57 | 53.24261 | 13.68641 | 15748 ft | 328 kts | 184° |
| 2026-05-07 16:57 | 53.21984 | 13.68412 | 15357 ft | 327 kts | 184° |
| 2026-05-07 16:57 | 53.19712 | 13.68183 | 14965 ft | 327 kts | 184° |
| 2026-05-07 16:58 | 53.17444 | 13.67952 | 14577 ft | 326 kts | 184° |
| 2026-05-07 16:58 | 53.15179 | 13.67722 | 14184 ft | 326 kts | 184° |
| 2026-05-07 16:58 | 53.12912 | 13.67495 | 13777 ft | 326 kts | 184° |
| 2026-05-07 16:58 | 53.10650 | 13.67268 | 13352 ft | 325 kts | 184° |
| 2026-05-07 16:59 | 53.08396 | 13.67045 | 12951 ft | 324 kts | 184° |
| 2026-05-07 16:59 | 53.06153 | 13.66825 | 12542 ft | 322 kts | 183° |
| 2026-05-07 16:59 | 53.03927 | 13.66605 | 12128 ft | 316 kts | 184° |
| 2026-05-07 16:59 | 53.01775 | 13.66389 | 11737 ft | 303 kts | 184° |
| 2026-05-07 17:00 | 52.99707 | 13.66182 | 11353 ft | 292 kts | 184° |
| 2026-05-07 17:00 | 52.97706 | 13.65986 | 10964 ft | 284 kts | 184° |
| 2026-05-07 17:00 | 52.95756 | 13.65750 | 10597 ft | 280 kts | 189° |
| 2026-05-07 17:00 | 52.93897 | 13.64800 | 10224 ft | 280 kts | 207° |
| 2026-05-07 17:01 | 52.92323 | 13.62992 | 9973 ft | 280 kts | 224° |
| 2026-05-07 17:01 | 52.91112 | 13.60422 | 9909 ft | 286 kts | 240° |
| 2026-05-07 17:01 | 52.90152 | 13.57523 | 9845 ft | 287 kts | 241° |
| 2026-05-07 17:01 | 52.89187 | 13.54624 | 9781 ft | 287 kts | 241° |
| 2026-05-07 17:02 | 52.88226 | 13.51747 | 9521 ft | 285 kts | 241° |
| 2026-05-07 17:02 | 52.87262 | 13.48859 | 9341 ft | 286 kts | 241° |
| 2026-05-07 17:02 | 52.86300 | 13.45980 | 9153 ft | 286 kts | 241° |
| 2026-05-07 17:02 | 52.85340 | 13.43105 | 8971 ft | 285 kts | 241° |
| 2026-05-07 17:03 | 52.84382 | 13.40237 | 8787 ft | 285 kts | 241° |
| 2026-05-07 17:03 | 52.83423 | 13.37374 | 8605 ft | 284 kts | 241° |
| 2026-05-07 17:03 | 52.82467 | 13.34520 | 8414 ft | 284 kts | 242° |
| 2026-05-07 17:03 | 52.81509 | 13.31663 | 8243 ft | 284 kts | 241° |
| 2026-05-07 17:04 | 52.80553 | 13.28814 | 8057 ft | 283 kts | 242° |
| 2026-05-07 17:04 | 52.79598 | 13.25975 | 7882 ft | 282 kts | 241° |
| 2026-05-07 17:04 | 52.78650 | 13.23159 | 7702 ft | 279 kts | 241° |
| 2026-05-07 17:04 | 52.77706 | 13.20354 | 7525 ft | 279 kts | 242° |
| 2026-05-07 17:05 | 52.76761 | 13.17552 | 7340 ft | 280 kts | 241° |
| 2026-05-07 17:05 | 52.75815 | 13.14749 | 7170 ft | 280 kts | 242° |
| 2026-05-07 17:05 | 52.74866 | 13.11948 | 6987 ft | 279 kts | 242° |
| 2026-05-07 17:05 | 52.73932 | 13.09194 | 6826 ft | 278 kts | 241° |
| 2026-05-07 17:06 | 52.72989 | 13.06414 | 6648 ft | 277 kts | 242° |
| 2026-05-07 17:06 | 52.72047 | 13.03635 | 6475 ft | 277 kts | 241° |
| 2026-05-07 17:06 | 52.71104 | 13.00860 | 6289 ft | 277 kts | 241° |
| 2026-05-07 17:06 | 52.70161 | 12.98092 | 6114 ft | 277 kts | 241° |
| 2026-05-07 17:07 | 52.69219 | 12.95329 | 5963 ft | 276 kts | 241° |
| 2026-05-07 17:07 | 52.68278 | 12.92576 | 5827 ft | 275 kts | 241° |
| 2026-05-07 17:07 | 52.67644 | 12.90719 | 5738 ft | 275 kts | 241° |
| 2026-05-07 17:07 | 52.66701 | 12.87960 | 5603 ft | 276 kts | 241° |
| 2026-05-07 17:08 | 52.65761 | 12.85208 | 5473 ft | 276 kts | 241° |
| 2026-05-07 17:08 | 52.64818 | 12.82454 | 5350 ft | 276 kts | 241° |
| 2026-05-07 17:08 | 52.63874 | 12.79703 | 5213 ft | 276 kts | 241° |
| 2026-05-07 17:08 | 52.62929 | 12.76953 | 5092 ft | 276 kts | 241° |
| 2026-05-07 17:09 | 52.61985 | 12.74204 | 4989 ft | 275 kts | 241° |
| 2026-05-07 17:09 | 52.61035 | 12.71469 | 4997 ft | 276 kts | 238° |
| 2026-05-07 17:09 | 52.59688 | 12.69284 | 4992 ft | 275 kts | 206° |
| 2026-05-07 17:09 | 52.57851 | 12.68712 | 4993 ft | 270 kts | 170° |
| 2026-05-07 17:10 | 52.56186 | 12.69882 | 4995 ft | 264 kts | 140° |
| 2026-05-07 17:10 | 52.54854 | 12.71962 | 4992 ft | 263 kts | 130° |
| 2026-05-07 17:10 | 52.53643 | 12.74210 | 4989 ft | 263 kts | 129° |
| 2026-05-07 17:10 | 52.52438 | 12.76463 | 4990 ft | 263 kts | 129° |
| 2026-05-07 17:11 | 52.51232 | 12.78720 | 4995 ft | 263 kts | 129° |
| 2026-05-07 17:11 | 52.49925 | 12.80831 | 4954 ft | 265 kts | 136° |
| 2026-05-07 17:11 | 52.48514 | 12.82723 | 4874 ft | 256 kts | 140° |
| 2026-05-07 17:11 | 52.47138 | 12.84439 | 4790 ft | 242 kts | 140° |
| 2026-05-07 17:12 | 52.45826 | 12.86054 | 4715 ft | 230 kts | 140° |
| 2026-05-07 17:12 | 52.44585 | 12.87598 | 4652 ft | 218 kts | 140° |
| 2026-05-07 17:12 | 52.43412 | 12.89077 | 4597 ft | 207 kts | 139° |
| 2026-05-07 17:12 | 52.42322 | 12.90465 | 4569 ft | 189 kts | 139° |
| 2026-05-07 17:13 | 52.41318 | 12.91754 | 4508 ft | 180 kts | 138° |
| 2026-05-07 17:13 | 52.40341 | 12.93015 | 4478 ft | 179 kts | 138° |
| 2026-05-07 17:13 | 52.39361 | 12.94283 | 4428 ft | 178 kts | 138° |
| 2026-05-07 17:13 | 52.38388 | 12.95543 | 4372 ft | 178 kts | 138° |
| 2026-05-07 17:14 | 52.37418 | 12.96803 | 4335 ft | 178 kts | 138° |
| 2026-05-07 17:14 | 52.36448 | 12.98059 | 4306 ft | 178 kts | 138° |
| 2026-05-07 17:14 | 52.35478 | 12.99313 | 4298 ft | 178 kts | 139° |
| 2026-05-07 17:14 | 52.34511 | 13.00559 | 4266 ft | 179 kts | 139° |
| 2026-05-07 17:15 | 52.33534 | 13.01822 | 4238 ft | 179 kts | 139° |
| 2026-05-07 17:15 | 52.32557 | 13.03087 | 4213 ft | 179 kts | 139° |
| 2026-05-07 17:15 | 52.31577 | 13.04352 | 4168 ft | 179 kts | 139° |
| 2026-05-07 17:15 | 52.30604 | 13.05609 | 4085 ft | 178 kts | 139° |
| 2026-05-07 17:16 | 52.29629 | 13.06865 | 4001 ft | 178 kts | 139° |
| 2026-05-07 17:16 | 52.28694 | 13.08171 | 3998 ft | 176 kts | 128° |
| 2026-05-07 17:16 | 52.28135 | 13.09907 | 4002 ft | 172 kts | 102° |
| 2026-05-07 17:16 | 52.28115 | 13.11823 | 3999 ft | 169 kts | 74° |
| 2026-05-07 17:17 | 52.28465 | 13.13651 | 4004 ft | 168 kts | 70° |
| 2026-05-07 17:17 | 52.28865 | 13.15449 | 4003 ft | 168 kts | 68° |
| 2026-05-07 17:17 | 52.29284 | 13.17239 | 4010 ft | 169 kts | 68° |
| 2026-05-07 17:17 | 52.29711 | 13.19029 | 3948 ft | 169 kts | 67° |
| 2026-05-07 17:18 | 52.30133 | 13.20786 | 3785 ft | 168 kts | 67° |
| 2026-05-07 17:18 | 52.30559 | 13.22558 | 3582 ft | 167 kts | 68° |
| 2026-05-07 17:18 | 52.30982 | 13.24313 | 3364 ft | 166 kts | 67° |
| 2026-05-07 17:18 | 52.31403 | 13.26064 | 3136 ft | 165 kts | 68° |
| 2026-05-07 17:19 | 52.31821 | 13.27807 | 2895 ft | 164 kts | 67° |
| 2026-05-07 17:19 | 52.32238 | 13.29542 | 2675 ft | 164 kts | 67° |
| 2026-05-07 17:19 | 52.32654 | 13.31278 | 2454 ft | 164 kts | 68° |
| 2026-05-07 17:19 | 52.33069 | 13.33006 | 2225 ft | 163 kts | 67° |
| 2026-05-07 17:20 | 52.33482 | 13.34734 | 2006 ft | 163 kts | 68° |
| 2026-05-07 17:20 | 52.33897 | 13.36465 | 1778 ft | 162 kts | 67° |
| 2026-05-07 17:20 | 52.34282 | 13.38078 | 1558 ft | 144 kts | 67° |
| 2026-05-07 17:20 | 52.34636 | 13.39561 | 1366 ft | 136 kts | 68° |
| 2026-05-07 17:21 | 52.34979 | 13.40994 | 1180 ft | 135 kts | 68° |
| 2026-05-07 17:21 | 52.35320 | 13.42424 | 980 ft | 135 kts | 68° |
| 2026-05-07 17:21 | 52.35658 | 13.43842 | 799 ft | 135 kts | 69° |
| 2026-05-07 17:21 | 52.36002 | 13.45286 | 623 ft | 137 kts | 70° |
| 2026-05-07 17:22 | 52.36349 | 13.46733 | 400 ft | 137 kts | 70° |
| 2026-05-07 17:22 | 52.36693 | 13.48191 | 214 ft | 137 kts | 71° |
| 2026-05-07 17:22 | 52.37001 | 13.49525 | 155 ft | 106 kts | 68° |
| 2026-05-07 17:22 | 52.37207 | 13.50382 | 155 ft | 56 kts | 68° |
| 2026-05-07 17:23 | 52.37304 | 13.50821 | 155 ft | 36 kts | 83° |
| 2026-05-07 17:23 | 52.37285 | 13.51204 | 155 ft | 30 kts | 99° |
| 2026-05-07 17:23 | 52.37278 | 13.51273 | 155 ft | 0 kts | 99° |
| 2026-05-07 17:25 | 52.37278 | 13.51276 | 155 ft | 2 kts | 99° |
| 2026-05-07 17:25 | 52.37276 | 13.51289 | 155 ft | 2 kts | 100° |
| 2026-05-07 17:25 | 52.37265 | 13.51319 | 155 ft | 6 kts | 139° |
| 2026-05-07 17:25 | 52.37203 | 13.51303 | 155 ft | 12 kts | 225° |
| 2026-05-07 17:26 | 52.37170 | 13.51183 | 155 ft | 11 kts | 249° |
| 2026-05-07 17:26 | 52.37146 | 13.51078 | 155 ft | 9 kts | 249° |
| 2026-05-07 17:26 | 52.37124 | 13.50991 | 155 ft | 8 kts | 247° |
| 2026-05-07 17:26 | 52.37104 | 13.50906 | 155 ft | 9 kts | 249° |
| 2026-05-07 17:27 | 52.37082 | 13.50816 | 155 ft | 8 kts | 249° |
| 2026-05-07 17:27 | 52.37065 | 13.50741 | 155 ft | 6 kts | 249° |
| 2026-05-07 17:27 | 52.37040 | 13.50640 | 155 ft | 14 kts | 249° |
| 2026-05-07 17:27 | 52.37004 | 13.50486 | 155 ft | 14 kts | 249° |
| 2026-05-07 17:28 | 52.36972 | 13.50351 | 155 ft | 12 kts | 249° |
| 2026-05-07 17:28 | 52.36944 | 13.50235 | 155 ft | 10 kts | 249° |
| 2026-05-07 17:28 | 52.36914 | 13.50143 | 155 ft | 8 kts | 221° |
| 2026-05-07 17:28 | 52.36862 | 13.50138 | 155 ft | 8 kts | 160° |
| 2026-05-07 17:29 | 52.36794 | 13.50178 | 155 ft | 13 kts | 161° |
| 2026-05-07 17:29 | 52.36709 | 13.50162 | 155 ft | 12 kts | 187° |
| 2026-05-07 17:29 | 52.36638 | 13.50196 | 155 ft | 10 kts | 159° |
| 2026-05-07 17:29 | 52.36578 | 13.50237 | 155 ft | 8 kts | 140° |
| 2026-05-07 17:30 | 52.36581 | 13.50306 | 155 ft | 5 kts | 73° |
| 2026-05-07 17:30 | 52.36591 | 13.50351 | 155 ft | 3 kts | 69° |
| 2026-05-07 17:30 | 52.36598 | 13.50380 | 155 ft | 2 kts | 69° |
| 2026-05-07 17:30 | 52.36601 | 13.50395 | 155 ft | 1 kts | 68° |
| 2026-05-07 17:31 | 52.36606 | 13.50416 | 155 ft | 2 kts | 68° |
| 2026-05-07 17:31 | 52.36610 | 13.50432 | 155 ft | 1 kts | 69° |
| 2026-05-07 17:31 | 52.36612 | 13.50437 | 155 ft | 1 kts | 68° |
| 2026-05-07 17:31 | 52.36613 | 13.50442 | 155 ft | 0 kts | 69° |
| 2026-05-07 17:32 | 52.36613 | 13.50444 | 155 ft | 2 kts | 69° |
| 2026-05-07 17:32 | 52.36615 | 13.50450 | 155 ft | 0 kts | 69° |